createdAt,value
2023-04-02T00:01:19.492Z,6.50
2023-04-02T00:03:59.695Z,6.60
2023-04-02T00:06:33.234Z,7.10
2023-04-02T00:09:13.633Z,6.30
2023-04-02T00:11:50.838Z,6.20
2023-04-02T00:14:23.406Z,4.40
2023-04-02T00:16:53.303Z,6.30
2023-04-02T00:22:07.416Z,6.40
2023-04-02T00:24:35.700Z,6.60
2023-04-02T00:27:03.773Z,6.50
2023-04-02T00:29:31.939Z,6.20
2023-04-02T00:32:01.923Z,6.80
2023-04-02T00:34:33.008Z,6.50
2023-04-02T00:37:02.034Z,6.50
2023-04-02T00:39:32.950Z,6.40
2023-04-02T00:42:07.836Z,6.60
2023-04-02T00:44:43.000Z,7.10
2023-04-02T00:47:18.968Z,7.10
2023-04-02T00:49:54.719Z,7.40
2023-04-02T00:52:25.024Z,7.30
2023-04-02T00:54:59.364Z,7.30
2023-04-02T00:57:28.349Z,7.60
2023-04-02T01:00:03.911Z,7.20
2023-04-02T01:02:38.380Z,7.40
2023-04-02T01:05:11.485Z,7.20
2023-04-02T01:08:04.788Z,7.30
2023-04-02T01:10:36.517Z,7.00
2023-04-02T01:13:22.529Z,7.00
2023-04-02T01:16:29.872Z,7.40
2023-04-02T01:19:07.517Z,7.20
2023-04-02T01:21:37.128Z,7.30
2023-04-02T01:24:07.620Z,7.40
2023-04-02T01:26:49.241Z,7.40
2023-04-02T01:29:20.347Z,6.50
2023-04-02T01:31:48.810Z,6.60
2023-04-02T01:34:23.767Z,6.80
2023-04-02T01:37:27.610Z,6.30
2023-04-02T01:40:14.839Z,6.00
2023-04-02T01:42:49.679Z,6.80
2023-04-02T01:45:19.655Z,6.30
2023-04-02T01:47:49.165Z,6.50
2023-04-02T01:50:39.596Z,6.90
2023-04-02T01:53:10.618Z,6.80
2023-04-02T01:55:38.664Z,6.90
2023-04-02T01:58:11.483Z,7.40
2023-04-02T02:00:52.349Z,7.20
2023-04-02T02:05:51.228Z,8.10
2023-04-02T02:08:41.437Z,7.90
2023-04-02T02:11:14.796Z,8.50
2023-04-02T02:13:56.387Z,8.80
2023-04-02T02:16:30.176Z,8.20
2023-04-02T02:19:02.946Z,9.00
2023-04-02T02:21:40.052Z,9.30
2023-04-02T02:24:29.273Z,8.90
2023-04-02T02:27:06.464Z,9.50
2023-04-02T02:29:37.493Z,9.70
2023-04-02T02:32:05.702Z,10.40
2023-04-02T02:34:37.826Z,10.20
2023-04-02T02:37:10.525Z,10.40
2023-04-02T02:39:45.768Z,9.90
2023-04-02T02:42:18.169Z,10.60
2023-04-02T02:44:49.460Z,10.10
2023-04-02T02:47:25.817Z,11.40
2023-04-02T02:49:58.856Z,11.10
2023-04-02T02:52:29.466Z,11.50
2023-04-02T02:55:06.716Z,10.90
2023-04-02T02:58:00.118Z,11.20
2023-04-02T03:00:31.168Z,11.60
2023-04-02T03:03:00.964Z,11.00
2023-04-02T03:05:31.376Z,12.40
2023-04-02T03:08:04.142Z,12.70
2023-04-02T03:10:35.417Z,11.70
2023-04-02T03:13:21.989Z,12.60
2023-04-02T03:16:09.514Z,12.40
2023-04-02T03:18:45.651Z,12.50
2023-04-02T03:21:39.320Z,12.70
2023-04-02T03:24:35.376Z,12.70
2023-04-02T03:27:43.792Z,13.90
2023-04-02T03:30:37.107Z,15.20
2023-04-02T03:33:28.126Z,14.20
2023-04-02T03:36:30.647Z,13.90
2023-04-02T03:39:16.512Z,14.00
2023-04-02T03:41:48.562Z,13.20
2023-04-02T03:44:26.804Z,14.00
2023-04-02T03:46:58.309Z,14.70
2023-04-02T03:49:56.346Z,14.40
2023-04-02T03:52:27.083Z,14.20
2023-04-02T03:54:57.491Z,14.50
2023-04-02T03:57:35.551Z,15.00
2023-04-02T04:00:14.523Z,13.60
2023-04-02T04:02:53.743Z,14.20
2023-04-02T04:05:30.432Z,13.90
2023-04-02T04:08:08.408Z,13.80
2023-04-02T04:10:37.162Z,15.10
2023-04-02T04:13:08.582Z,14.50
2023-04-02T04:15:39.062Z,14.50
2023-04-02T04:18:19.453Z,14.30
2023-04-02T04:20:56.830Z,11.10
2023-04-02T04:23:31.794Z,15.20
2023-04-02T04:26:09.622Z,14.70
2023-04-02T04:28:45.039Z,15.20
2023-04-02T04:31:18.141Z,15.00
2023-04-02T04:33:50.730Z,14.20
2023-04-02T04:36:27.950Z,15.00
2023-04-02T04:39:04.525Z,14.80
2023-04-02T04:41:35.708Z,16.00
2023-04-02T04:44:14.801Z,15.10
2023-04-02T04:46:47.493Z,15.00
2023-04-02T04:49:26.051Z,15.60
2023-04-02T04:51:56.413Z,15.40
2023-04-02T04:54:26.352Z,14.10
2023-04-02T04:57:04.227Z,15.10
2023-04-02T04:59:41.632Z,14.60
2023-04-02T05:02:19.537Z,14.30
2023-04-02T05:04:51.993Z,15.20
2023-04-02T05:07:22.804Z,15.30
2023-04-02T05:10:21.720Z,15.10
2023-04-02T05:12:54.628Z,14.90
2023-04-02T05:15:38.561Z,14.40
2023-04-02T05:18:30.572Z,14.70
2023-04-02T05:21:18.152Z,14.50
2023-04-02T05:24:18.250Z,14.70
2023-04-02T05:26:46.845Z,15.10
2023-04-02T05:29:27.578Z,14.70
2023-04-02T05:32:03.664Z,16.20
2023-04-02T05:34:34.112Z,15.70
2023-04-02T05:37:07.185Z,14.90
2023-04-02T05:39:37.067Z,16.10
2023-04-02T05:42:06.634Z,17.10
2023-04-02T05:45:03.557Z,18.80
2023-04-02T05:47:32.775Z,21.00
2023-04-02T05:50:10.151Z,21.00
2023-04-02T05:52:46.407Z,18.00
2023-04-02T05:55:29.528Z,16.50
2023-04-02T05:58:29.624Z,13.40
2023-04-02T06:01:01.739Z,11.70
2023-04-02T06:03:32.558Z,10.10
2023-04-02T06:06:05.259Z,8.10
2023-04-02T06:08:43.543Z,7.80
2023-04-02T06:11:33.189Z,7.90
2023-04-02T06:14:03.461Z,7.40
2023-04-02T06:16:33.447Z,8.00
2023-04-02T06:19:06.094Z,7.50
2023-04-02T06:21:34.623Z,7.70
2023-04-02T06:24:03.836Z,8.70
2023-04-02T06:29:09.714Z,9.90
2023-04-02T06:32:08.910Z,8.70
2023-04-02T06:34:41.572Z,7.20
2023-04-02T06:37:18.381Z,6.50
2023-04-02T06:39:47.876Z,5.90
2023-04-02T06:42:31.344Z,6.10
2023-04-02T06:45:31.202Z,4.30
2023-04-02T06:48:17.409Z,5.10
2023-04-02T06:51:01.065Z,5.10
2023-04-02T06:53:51.912Z,5.00
2023-04-02T06:56:36.848Z,4.70
2023-04-02T06:59:07.619Z,4.20
2023-04-02T07:01:40.295Z,4.00
2023-04-02T07:04:10.462Z,3.80
2023-04-02T07:06:42.517Z,3.20
2023-04-02T07:09:12.736Z,3.50
2023-04-02T07:11:44.292Z,3.70
2023-04-02T07:14:13.182Z,3.40
2023-04-02T07:16:41.436Z,3.60
2023-04-02T07:19:27.715Z,3.80
2023-04-02T07:21:58.712Z,3.00
2023-04-02T07:24:33.156Z,3.00
2023-04-02T07:27:07.294Z,3.20
2023-04-02T07:29:35.609Z,3.10
2023-04-02T07:32:03.883Z,3.20
2023-04-02T07:34:32.605Z,3.40
2023-04-02T07:37:05.970Z,3.70
2023-04-02T07:39:36.804Z,3.90
2023-04-02T07:42:06.616Z,3.90
2023-04-02T07:44:36.113Z,3.70
2023-04-02T07:47:04.424Z,3.60
2023-04-02T07:49:35.532Z,3.70
2023-04-02T07:52:04.039Z,6.20
2023-04-02T07:54:32.248Z,5.10
2023-04-02T07:57:00.568Z,3.60
2023-04-02T07:59:28.797Z,3.20
2023-04-02T08:01:57.906Z,3.30
2023-04-02T08:04:27.361Z,3.60
2023-04-02T08:06:56.944Z,3.60
2023-04-02T08:09:25.162Z,3.80
2023-04-02T08:11:55.273Z,3.10
2023-04-02T08:14:23.820Z,3.20
2023-04-02T08:16:53.731Z,3.40
2023-04-02T08:19:25.179Z,3.30
2023-04-02T08:21:53.730Z,3.00
2023-04-02T08:24:21.879Z,2.90
2023-04-02T08:26:51.735Z,2.90
2023-04-02T08:29:20.924Z,3.00
2023-04-02T08:34:18.243Z,2.90
2023-04-02T08:36:46.407Z,3.10
2023-04-02T08:39:14.952Z,2.50
2023-04-02T08:42:05.051Z,2.50
2023-04-02T08:44:55.119Z,2.50
2023-04-02T08:47:26.065Z,2.60
2023-04-02T08:50:02.079Z,2.20
2023-04-02T08:52:35.892Z,2.60
2023-04-02T08:55:12.700Z,2.60
2023-04-02T08:57:46.565Z,2.90
2023-04-02T09:00:15.810Z,2.70
2023-04-02T09:02:52.119Z,2.90
2023-04-02T09:05:26.557Z,2.60
2023-04-02T09:07:56.478Z,2.90
2023-04-02T09:10:35.701Z,2.80
2023-04-02T09:13:14.422Z,3.00
2023-04-02T09:15:43.533Z,2.60
2023-04-02T09:18:18.505Z,2.40
2023-04-02T09:20:50.287Z,2.70
2023-04-02T09:23:22.384Z,3.60
2023-04-02T09:26:03.577Z,3.10
2023-04-02T09:28:32.609Z,3.10
2023-04-02T09:31:21.984Z,3.30
2023-04-02T09:33:51.637Z,2.90
2023-04-02T09:36:33.045Z,3.30
2023-04-02T09:39:06.623Z,3.50
2023-04-02T09:41:36.858Z,3.30
2023-04-02T09:44:31.684Z,2.80
2023-04-02T09:47:03.982Z,3.00
2023-04-02T09:49:34.406Z,2.90
2023-04-02T09:52:07.429Z,2.90
2023-04-02T09:54:41.690Z,5.70
2023-04-02T09:57:24.217Z,3.70
2023-04-02T10:00:25.319Z,3.40
2023-04-02T10:03:18.954Z,3.10
2023-04-02T10:05:47.877Z,3.80
2023-04-02T10:08:24.879Z,4.20
2023-04-02T10:10:55.385Z,3.00
2023-04-02T10:13:35.342Z,3.00
2023-04-02T10:16:33.190Z,3.40
2023-04-02T10:19:04.817Z,3.50
2023-04-02T10:21:37.378Z,3.40
2023-04-02T10:24:12.217Z,3.80
2023-04-02T10:26:58.823Z,3.50
2023-04-02T10:30:02.276Z,3.30
2023-04-02T10:32:35.402Z,3.70
2023-04-02T10:35:08.932Z,3.20
2023-04-02T10:37:47.386Z,5.00
2023-04-02T10:40:30.193Z,4.00
2023-04-02T10:43:01.128Z,3.10
2023-04-02T10:45:46.599Z,3.00
2023-04-02T10:48:17.936Z,3.40
2023-04-02T10:50:51.971Z,3.50
2023-04-02T10:53:21.735Z,3.40
2023-04-02T10:55:54.182Z,3.30
2023-04-02T10:59:23.193Z,3.30
2023-04-02T11:01:51.819Z,3.80
2023-04-02T11:04:36.421Z,3.50
2023-04-02T11:07:14.477Z,3.40
2023-04-02T11:09:45.122Z,3.20
2023-04-02T11:12:26.314Z,2.90
2023-04-02T11:14:59.626Z,3.00
2023-04-02T11:17:27.907Z,3.00
2023-04-02T11:19:56.881Z,3.10
2023-04-02T11:22:24.943Z,3.80
2023-04-02T11:24:55.016Z,3.20
2023-04-02T11:27:33.798Z,3.00
2023-04-02T11:30:25.829Z,3.30
2023-04-02T11:32:56.994Z,2.60
2023-04-02T11:35:31.429Z,3.20
2023-04-02T11:38:09.639Z,2.80
2023-04-02T11:40:42.196Z,2.90
2023-04-02T11:43:36.208Z,3.30
2023-04-02T11:46:41.567Z,3.00
2023-04-02T11:49:36.455Z,4.30
2023-04-02T11:52:11.906Z,5.10
2023-04-02T11:54:41.362Z,4.80
2023-04-02T11:57:42.664Z,4.80
2023-04-02T12:00:19.566Z,5.60
2023-04-02T12:02:54.085Z,5.10
2023-04-02T12:05:26.587Z,5.50
2023-04-02T12:08:24.577Z,5.70
2023-04-02T12:10:54.293Z,5.20
2023-04-02T12:13:41.326Z,5.50
2023-04-02T12:16:13.348Z,4.90
2023-04-02T12:18:51.210Z,5.10
2023-04-02T12:21:20.443Z,4.90
2023-04-02T12:23:48.528Z,5.20
2023-04-02T12:26:30.380Z,4.80
2023-04-02T12:29:26.805Z,4.90
2023-04-02T12:31:55.756Z,4.60
2023-04-02T12:34:25.658Z,4.80
2023-04-02T12:37:04.498Z,4.70
2023-04-02T12:39:33.737Z,4.30
2023-04-02T12:42:28.296Z,4.10
2023-04-02T12:44:56.961Z,3.60
2023-04-02T12:47:28.691Z,4.10
2023-04-02T12:49:57.836Z,3.70
2023-04-02T12:52:29.610Z,3.60
2023-04-02T12:55:00.232Z,3.60
2023-04-02T12:57:31.075Z,3.20
2023-04-02T13:00:24.627Z,3.50
2023-04-02T13:03:17.157Z,4.30
2023-04-02T13:05:56.336Z,4.90
2023-04-02T13:08:27.466Z,5.70
2023-04-02T13:10:58.071Z,6.20
2023-04-02T13:13:30.307Z,6.90
2023-04-02T13:16:26.125Z,6.90
2023-04-02T13:19:26.283Z,7.10
2023-04-02T13:21:55.581Z,7.30
2023-04-02T13:24:25.712Z,8.30
2023-04-02T13:26:56.234Z,8.30
2023-04-02T13:31:55.274Z,8.10
2023-04-02T13:34:23.691Z,8.70
2023-04-02T13:36:57.463Z,9.00
2023-04-02T13:39:26.256Z,9.40
2023-04-02T13:41:57.390Z,9.10
2023-04-02T13:44:28.278Z,9.50
2023-04-02T13:46:57.438Z,9.10
2023-04-02T13:49:27.017Z,9.40
2023-04-02T13:51:59.925Z,8.90
2023-04-02T13:54:33.802Z,8.90
2023-04-02T13:57:01.846Z,9.70
2023-04-02T13:59:30.483Z,10.60
2023-04-02T14:02:03.134Z,9.50
2023-04-02T14:04:33.977Z,9.90
2023-04-02T14:07:23.414Z,10.30
2023-04-02T14:10:15.687Z,10.10
2023-04-02T14:13:19.601Z,10.30
2023-04-02T14:16:17.249Z,10.70
2023-04-02T14:19:34.098Z,10.80
2023-04-02T14:22:03.953Z,10.50
2023-04-02T14:24:39.657Z,10.20
2023-04-02T14:27:23.183Z,9.80
2023-04-02T14:30:12.752Z,11.50
2023-04-02T14:32:54.137Z,11.70
2023-04-02T14:35:33.638Z,11.60
2023-04-02T14:38:20.616Z,9.00
2023-04-02T14:41:02.435Z,11.80
2023-04-02T14:43:51.252Z,11.90
2023-04-02T14:46:19.379Z,10.90
2023-04-02T14:49:23.253Z,10.80
2023-04-02T14:51:59.083Z,10.70
2023-04-02T14:54:36.222Z,11.30
2023-04-02T14:57:17.144Z,10.50
2023-04-02T14:59:49.161Z,11.00
2023-04-02T15:02:49.895Z,10.50
2023-04-02T15:05:56.724Z,11.80
2023-04-02T15:08:35.317Z,12.20
2023-04-02T15:11:22.821Z,11.90
2023-04-02T15:14:03.979Z,14.00
2023-04-02T15:16:36.535Z,12.40
2023-04-02T15:19:11.061Z,12.50
2023-04-02T15:21:57.543Z,13.10
2023-04-02T15:24:51.672Z,12.40
2023-04-02T15:27:34.978Z,11.70
2023-04-02T15:30:09.196Z,11.70
2023-04-02T15:32:39.937Z,12.00
2023-04-02T15:35:48.869Z,11.70
2023-04-02T15:38:19.440Z,11.90
2023-04-02T15:40:57.714Z,11.80
2023-04-02T15:43:30.071Z,11.80
2023-04-02T15:46:12.588Z,12.00
2023-04-02T15:48:44.278Z,10.90
2023-04-02T15:51:48.484Z,11.60
2023-04-02T15:54:22.838Z,12.10
2023-04-02T15:57:11.876Z,10.80
2023-04-02T16:00:04.153Z,11.50
2023-04-02T16:02:49.417Z,10.60
2023-04-02T16:05:37.095Z,10.10
2023-04-02T16:08:11.269Z,10.30
2023-04-02T16:10:42.477Z,10.90
2023-04-02T16:13:26.964Z,12.10
2023-04-02T16:16:05.669Z,10.40
2023-04-02T16:18:52.826Z,10.20
2023-04-02T16:21:22.771Z,11.60
2023-04-02T16:23:51.147Z,12.20
2023-04-02T16:26:33.799Z,12.70
2023-04-02T16:29:11.614Z,12.20
2023-04-02T16:32:05.674Z,13.50
2023-04-02T16:34:55.027Z,13.00
2023-04-02T16:37:31.145Z,12.90
2023-04-02T16:40:11.303Z,13.20
2023-04-02T16:43:00.234Z,13.30
2023-04-02T16:45:36.198Z,14.00
2023-04-02T16:48:18.616Z,12.40
2023-04-02T16:51:17.670Z,11.90
2023-04-02T16:54:04.568Z,11.60
2023-04-02T16:57:09.878Z,11.70
2023-04-02T17:00:15.553Z,11.30
2023-04-02T17:03:22.152Z,11.00
2023-04-02T17:06:08.981Z,10.20
2023-04-02T17:09:06.690Z,11.20
2023-04-02T17:12:00.122Z,12.00
2023-04-02T17:14:34.750Z,11.00
2023-04-02T17:17:03.680Z,10.60
2023-04-02T17:19:32.569Z,10.80
2023-04-02T17:22:02.449Z,10.30
2023-04-02T17:24:41.795Z,10.90
2023-04-02T17:27:25.459Z,10.00
2023-04-02T17:29:58.750Z,9.30
2023-04-02T17:32:30.215Z,9.50
2023-04-02T17:35:32.149Z,9.80
2023-04-02T17:38:38.014Z,10.20
2023-04-02T17:41:42.856Z,9.30
2023-04-02T17:44:39.172Z,9.80
2023-04-02T17:47:23.412Z,9.70
2023-04-02T17:49:57.679Z,10.20
2023-04-02T17:52:41.405Z,10.30
2023-04-02T17:55:18.356Z,10.70
2023-04-02T17:58:44.267Z,11.40
2023-04-02T18:01:41.407Z,11.10
2023-04-02T18:04:15.696Z,12.20
2023-04-02T18:07:13.433Z,11.40
2023-04-02T18:09:51.101Z,10.60
2023-04-02T18:12:32.124Z,10.30
2023-04-02T18:15:30.952Z,11.00
2023-04-02T18:18:05.120Z,11.30
2023-04-02T18:20:55.993Z,9.90
2023-04-02T18:23:36.996Z,10.50
2023-04-02T18:26:16.898Z,9.30
2023-04-02T18:29:17.268Z,9.10
2023-04-02T18:32:15.259Z,8.90
2023-04-02T18:35:08.329Z,9.30
2023-04-02T18:38:18.279Z,9.10
2023-04-02T18:41:05.762Z,8.40
2023-04-02T18:43:51.939Z,7.90
2023-04-02T18:46:22.804Z,8.50
2023-04-02T18:48:57.056Z,8.20
2023-04-02T18:51:27.229Z,9.30
2023-04-02T18:54:16.174Z,8.90
2023-04-02T18:56:44.602Z,9.30
2023-04-02T18:59:27.040Z,8.80
2023-04-02T19:01:55.543Z,8.40
2023-04-02T19:04:28.632Z,8.50
2023-04-02T19:07:07.102Z,8.10
2023-04-02T19:09:36.151Z,7.20
2023-04-02T19:12:24.584Z,7.80
2023-04-02T19:14:59.699Z,7.90
2023-04-02T19:17:36.179Z,8.70
2023-04-02T19:20:11.750Z,8.00
2023-04-02T19:22:52.086Z,8.30
2023-04-02T19:25:37.890Z,8.10
2023-04-02T19:28:23.593Z,7.60
2023-04-02T19:31:09.367Z,7.80
2023-04-02T19:33:52.651Z,8.00
2023-04-02T19:36:47.286Z,9.00
2023-04-02T19:39:31.795Z,9.10
2023-04-02T19:42:21.006Z,9.60
2023-04-02T19:44:50.678Z,9.20
2023-04-02T19:47:19.012Z,8.50
2023-04-02T19:49:47.066Z,9.10
2023-04-02T19:52:14.975Z,8.80
2023-04-02T19:54:43.229Z,8.20
2023-04-02T19:57:15.041Z,7.40
2023-04-02T19:59:43.970Z,8.10
2023-04-02T20:02:12.395Z,7.90
2023-04-02T20:04:41.173Z,8.10
2023-04-02T20:07:09.157Z,8.30
2023-04-02T20:09:37.352Z,8.20
2023-04-02T20:12:05.646Z,9.30
2023-04-02T20:14:33.709Z,10.00
2023-04-02T20:17:02.103Z,10.40
2023-04-02T20:19:30.699Z,10.20
2023-04-02T20:21:59.028Z,9.60
2023-04-02T20:24:27.520Z,9.40
2023-04-02T20:26:55.926Z,9.50
2023-04-02T20:29:28.208Z,9.60
2023-04-02T20:31:57.032Z,8.40
2023-04-02T20:34:25.163Z,8.10
2023-04-02T20:36:53.736Z,7.50
2023-04-02T20:39:22.355Z,7.50
2023-04-02T20:41:50.670Z,7.20
2023-04-02T20:44:18.725Z,7.80
2023-04-02T20:46:47.287Z,7.30
2023-04-02T20:49:15.741Z,7.80
2023-04-02T20:51:46.522Z,7.20
2023-04-02T20:54:15.782Z,7.00
2023-04-02T20:56:45.527Z,5.50
2023-04-02T20:59:14.800Z,7.80
2023-04-02T21:01:42.869Z,6.90
2023-04-02T21:04:11.338Z,6.60
2023-04-02T21:06:40.280Z,6.90
2023-04-02T21:09:18.455Z,6.90
2023-04-02T21:11:46.510Z,6.40
2023-04-02T21:14:14.660Z,7.30
2023-04-02T21:16:43.138Z,6.50
2023-04-02T21:19:11.290Z,6.60
2023-04-02T21:21:39.699Z,6.30
2023-04-02T21:24:08.639Z,6.10
2023-04-02T21:26:38.857Z,6.50
2023-04-02T21:29:06.962Z,5.80
2023-04-02T21:31:37.207Z,5.80
2023-04-02T21:34:06.182Z,5.40
2023-04-02T21:36:36.353Z,5.30
2023-04-02T21:39:06.700Z,5.40
2023-04-02T21:41:41.768Z,5.10
2023-04-02T21:44:13.657Z,5.10
2023-04-02T21:46:45.268Z,5.00
2023-04-02T21:49:18.361Z,4.90
2023-04-02T21:51:46.788Z,5.20
2023-04-02T21:54:16.902Z,5.20
2023-04-02T21:56:46.404Z,5.60
2023-04-02T21:59:15.894Z,5.40
2023-04-02T22:01:47.027Z,6.00
2023-04-02T22:04:20.799Z,5.30
2023-04-02T22:06:49.000Z,5.30
2023-04-02T22:09:19.334Z,5.20
2023-04-02T22:11:56.115Z,4.90
2023-04-02T22:14:24.577Z,5.30
2023-04-02T22:16:52.869Z,5.50
2023-04-02T22:19:21.653Z,5.50
2023-04-02T22:21:49.820Z,7.10
2023-04-02T22:24:25.496Z,7.90
2023-04-02T22:26:55.050Z,7.80
2023-04-02T22:29:23.294Z,8.80
2023-04-02T22:31:52.047Z,7.70
2023-04-02T22:34:20.979Z,6.60
2023-04-02T22:36:49.047Z,6.40
2023-04-02T22:39:17.665Z,5.60
2023-04-02T22:41:46.517Z,5.80
2023-04-02T22:44:14.701Z,5.50
2023-04-02T22:46:43.211Z,5.00
2023-04-02T22:49:11.763Z,4.50
2023-04-02T22:51:40.110Z,4.90
2023-04-02T22:54:08.745Z,5.00
2023-04-02T22:56:37.567Z,3.90
2023-04-02T22:59:06.145Z,4.00
2023-04-02T23:01:34.764Z,3.90
2023-04-02T23:04:05.336Z,3.60
2023-04-02T23:06:35.067Z,3.40
2023-04-02T23:09:04.248Z,2.90
2023-04-02T23:11:34.965Z,3.10
2023-04-02T23:16:13.480Z,2.80
2023-04-02T23:18:48.053Z,2.80
2023-04-02T23:21:17.098Z,2.80
2023-04-02T23:23:45.727Z,3.10
2023-04-02T23:26:16.251Z,2.90
2023-04-02T23:28:44.593Z,2.90
2023-04-02T23:31:15.830Z,2.80
2023-04-02T23:33:44.053Z,2.40
2023-04-02T23:36:32.405Z,2.70
2023-04-02T23:39:04.934Z,2.60
2023-04-02T23:41:33.307Z,2.70
2023-04-02T23:44:01.509Z,2.70
2023-04-02T23:46:30.603Z,2.30
2023-04-02T23:48:58.995Z,2.20
2023-04-02T23:51:28.077Z,2.20
2023-04-02T23:53:56.802Z,2.00
2023-04-02T23:56:28.890Z,1.70
2023-04-02T23:58:57.030Z,1.70
